createdAt,value
2023-04-26T00:04:57.389Z,99.99
2023-04-26T00:14:57.617Z,99.99
2023-04-26T00:24:57.613Z,99.99
2023-04-26T00:34:57.824Z,99.99
2023-04-26T00:44:58.183Z,99.99
2023-04-26T00:54:58.139Z,99.99
2023-04-26T01:04:58.352Z,99.99
2023-04-26T01:14:58.538Z,99.99
2023-04-26T01:24:58.751Z,99.99
2023-04-26T01:34:58.918Z,99.99
2023-04-26T01:44:59.134Z,99.99
2023-04-26T01:54:59.502Z,99.99
2023-04-26T02:05:01.679Z,99.99
2023-04-26T02:14:59.654Z,99.99
2023-04-26T02:24:59.991Z,99.99
2023-04-26T02:35:00.064Z,99.99
2023-04-26T02:45:00.286Z,99.99
2023-04-26T02:55:00.539Z,99.99
2023-04-26T03:05:00.507Z,99.99
2023-04-26T03:15:00.775Z,99.99
2023-04-26T03:25:02.016Z,99.99
2023-04-26T03:35:01.123Z,99.99
2023-04-26T03:45:01.239Z,99.99
2023-04-26T03:55:01.421Z,99.99
2023-04-26T04:05:01.692Z,99.99
2023-04-26T04:15:01.804Z,99.99
2023-04-26T04:25:02.073Z,99.99
2023-04-26T04:35:02.146Z,99.99
2023-04-26T04:45:02.357Z,99.99
2023-04-26T04:55:02.643Z,99.99
2023-04-26T05:05:02.864Z,99.99
2023-04-26T05:15:02.978Z,99.99
2023-04-26T05:25:03.506Z,99.99
2023-04-26T05:35:03.357Z,99.99
2023-04-26T05:45:03.592Z,99.99
2023-04-26T05:55:03.794Z,99.99
2023-04-26T06:05:04.136Z,99.99
2023-04-26T06:15:04.179Z,99.99
2023-04-26T06:25:04.331Z,98.84
2023-04-26T06:35:04.534Z,96.17
2023-04-26T06:45:04.838Z,95.03
2023-04-26T06:55:04.783Z,93.19
2023-04-26T07:05:05.029Z,92.06
2023-04-26T07:15:05.317Z,92.16
2023-04-26T07:25:05.490Z,89.36
2023-04-26T07:35:05.557Z,89.79
2023-04-26T07:45:05.684Z,85.28
2023-04-26T07:55:05.843Z,79.13
2023-04-26T08:05:06.237Z,79.36
2023-04-26T08:15:07.281Z,76.83
2023-04-26T08:25:06.694Z,74.77
2023-04-26T08:35:06.633Z,73.68
2023-04-26T08:45:06.908Z,66.96
2023-04-26T08:55:07.295Z,70.12
2023-04-26T09:05:07.311Z,67.13
2023-04-26T09:15:07.283Z,61.60
2023-04-26T09:25:07.974Z,54.94
2023-04-26T09:35:07.665Z,53.83
2023-04-26T09:45:07.769Z,56.35
2023-04-26T09:55:08.220Z,51.37
2023-04-26T10:05:08.152Z,54.49
2023-04-26T10:15:08.466Z,50.02
2023-04-26T10:25:08.540Z,53.70
2023-04-26T10:35:08.586Z,57.18
2023-04-26T10:45:08.758Z,54.85
2023-04-26T10:55:08.877Z,53.06
2023-04-26T11:05:09.248Z,54.87
2023-04-26T11:15:09.245Z,54.64
2023-04-26T11:25:09.566Z,51.26
2023-04-26T11:35:09.625Z,45.73
2023-04-26T11:45:09.819Z,51.46
2023-04-26T11:55:10.031Z,49.85
2023-04-26T12:05:10.328Z,42.47
2023-04-26T12:15:10.214Z,48.32
2023-04-26T12:25:11.547Z,43.44
2023-04-26T12:35:10.826Z,43.99
2023-04-26T12:45:10.830Z,43.73
2023-04-26T12:55:11.401Z,48.96
2023-04-26T13:05:11.146Z,49.59
2023-04-26T13:15:11.320Z,45.10
2023-04-26T13:25:11.971Z,50.12
2023-04-26T13:35:11.684Z,46.69
2023-04-26T13:45:12.454Z,49.28
2023-04-26T13:55:12.061Z,48.08
2023-04-26T14:05:12.584Z,47.59
2023-04-26T14:15:12.422Z,45.69
2023-04-26T14:25:12.634Z,47.35
2023-04-26T14:35:12.961Z,45.53
2023-04-26T14:45:13.117Z,45.53
2023-04-26T14:55:13.186Z,53.37
2023-04-26T15:05:13.391Z,53.30
2023-04-26T15:15:13.747Z,51.62
2023-04-26T15:25:13.857Z,49.27
2023-04-26T15:35:13.900Z,44.82
2023-04-26T15:45:14.103Z,43.08
2023-04-26T15:55:14.539Z,40.83
2023-04-26T16:05:14.896Z,44.11
2023-04-26T16:15:14.996Z,43.37
2023-04-26T16:25:15.105Z,46.09
2023-04-26T16:35:15.318Z,41.87
2023-04-26T16:45:16.726Z,44.64
2023-04-26T16:55:15.252Z,46.23
2023-04-26T17:05:15.670Z,47.74
2023-04-26T17:15:15.896Z,47.71
2023-04-26T17:25:15.851Z,55.25
2023-04-26T17:35:16.135Z,54.92
2023-04-26T17:45:16.403Z,57.46
2023-04-26T17:55:16.350Z,58.15
2023-04-26T18:05:16.552Z,61.91
2023-04-26T18:15:16.719Z,66.93
2023-04-26T18:25:16.936Z,70.12
2023-04-26T18:35:17.098Z,70.09
2023-04-26T18:45:17.330Z,72.89
2023-04-26T18:55:17.706Z,72.44
2023-04-26T19:05:17.907Z,76.48
2023-04-26T19:15:17.868Z,78.12
2023-04-26T19:25:18.113Z,75.76
2023-04-26T19:35:18.288Z,74.94
2023-04-26T19:45:18.497Z,79.46
2023-04-26T19:55:18.665Z,77.06
2023-04-26T20:05:18.877Z,78.50
2023-04-26T20:15:19.333Z,80.15
2023-04-26T20:25:19.191Z,78.06
2023-04-26T20:35:19.378Z,79.60
2023-04-26T20:45:19.602Z,78.67
2023-04-26T20:55:19.768Z,78.36
2023-04-26T21:05:20.125Z,81.79
2023-04-26T21:15:20.076Z,78.64
2023-04-26T21:25:20.733Z,79.91
2023-04-26T21:35:20.447Z,80.77
2023-04-26T21:45:20.654Z,77.75
2023-04-26T21:55:20.810Z,81.49
2023-04-26T22:05:21.026Z,83.65
2023-04-26T22:15:21.436Z,85.55
2023-04-26T22:25:21.401Z,85.34
2023-04-26T22:35:21.680Z,86.37
2023-04-26T22:45:21.777Z,83.80
2023-04-26T22:55:21.945Z,82.11
2023-04-26T23:05:22.140Z,77.75
2023-04-26T23:15:22.339Z,78.54
2023-04-26T23:25:22.448Z,81.60
2023-04-26T23:35:22.737Z,86.16
2023-04-26T23:45:22.847Z,87.34
2023-04-26T23:55:23.602Z,87.99
